createdAt,value
2019-03-16T00:01:56.485Z,88.42
2019-03-16T00:04:15.052Z,88.57
2019-03-16T00:06:41.706Z,88.41
2019-03-16T00:09:08.443Z,87.86
2019-03-16T00:11:34.881Z,87.66
2019-03-16T00:14:01.310Z,87.78
2019-03-16T00:16:27.951Z,88.33
2019-03-16T00:18:54.476Z,87.97
2019-03-16T00:21:21.021Z,89.07
2019-03-16T00:23:47.463Z,90.27
2019-03-16T00:26:14.197Z,89.19
2019-03-16T00:28:40.713Z,88.76
2019-03-16T00:31:07.368Z,88.41
2019-03-16T00:33:33.804Z,88.45
2019-03-16T00:36:00.340Z,88.72
2019-03-16T00:38:26.775Z,89.16
2019-03-16T00:40:53.309Z,89.50
2019-03-16T00:43:19.741Z,88.94
2019-03-16T00:45:46.276Z,88.88
2019-03-16T00:48:12.710Z,88.23
2019-03-16T00:50:39.145Z,88.20
2019-03-16T00:53:05.579Z,88.59
2019-03-16T00:55:32.117Z,88.35
2019-03-16T00:57:58.653Z,88.29
2019-03-16T01:00:25.188Z,87.81
2019-03-16T01:02:51.727Z,88.19
2019-03-16T01:05:19.656Z,88.24
2019-03-16T01:07:47.282Z,88.66
2019-03-16T01:10:14.965Z,88.93
2019-03-16T01:12:42.734Z,88.43
2019-03-16T01:15:11.463Z,87.70
2019-03-16T01:17:38.416Z,87.76
2019-03-16T01:20:08.134Z,87.91
2019-03-16T01:22:34.664Z,87.52
2019-03-16T01:25:01.144Z,88.02
2019-03-16T01:27:27.633Z,87.82
2019-03-16T01:29:54.269Z,87.42
2019-03-16T01:32:20.807Z,88.14
2019-03-16T01:34:47.649Z,88.58
2019-03-16T01:37:14.083Z,88.86
2019-03-16T01:39:40.619Z,88.36
2019-03-16T01:42:07.049Z,88.81
2019-03-16T01:44:33.671Z,88.13
2019-03-16T01:47:00.223Z,87.80
2019-03-16T01:49:26.656Z,87.30
2019-03-16T01:51:53.092Z,87.91
2019-03-16T01:54:19.509Z,88.87
2019-03-16T01:56:46.059Z,88.27
2019-03-16T01:59:12.491Z,88.15
2019-03-16T02:01:39.232Z,88.03
2019-03-16T02:04:05.668Z,88.47
2019-03-16T02:06:32.203Z,88.41
2019-03-16T02:08:58.635Z,87.87
2019-03-16T02:11:25.083Z,89.03
2019-03-16T02:13:51.605Z,88.44
2019-03-16T02:16:18.142Z,88.20
2019-03-16T02:18:44.575Z,88.38
2019-03-16T02:21:11.110Z,88.60
2019-03-16T02:23:37.543Z,88.30
2019-03-16T02:26:04.183Z,88.25
2019-03-16T02:28:30.620Z,88.95
2019-03-16T02:30:57.668Z,88.31
2019-03-16T02:33:24.203Z,88.49
2019-03-16T02:35:51.070Z,88.63
2019-03-16T02:38:17.482Z,88.70
2019-03-16T02:40:43.918Z,88.16
2019-03-16T02:43:10.454Z,88.28
2019-03-16T02:45:36.983Z,89.39
2019-03-16T02:48:03.402Z,88.36
2019-03-16T02:50:29.849Z,87.84
2019-03-16T02:52:56.386Z,87.87
2019-03-16T02:55:22.921Z,87.95
2019-03-16T02:57:49.356Z,88.30
2019-03-16T03:00:15.795Z,87.95
2019-03-16T03:02:42.429Z,87.82
2019-03-16T03:05:09.393Z,88.60
2019-03-16T03:07:36.011Z,87.94
2019-03-16T03:10:12.962Z,88.03
2019-03-16T03:12:39.428Z,88.21
2019-03-16T03:15:07.087Z,87.95
2019-03-16T03:17:33.520Z,88.86
2019-03-16T03:19:59.954Z,88.09
2019-03-16T03:22:28.274Z,88.17
2019-03-16T03:24:54.872Z,88.79
2019-03-16T03:27:21.301Z,87.99
2019-03-16T03:29:47.950Z,88.51
2019-03-16T03:32:14.483Z,88.34
2019-03-16T03:34:41.066Z,88.38
2019-03-16T03:37:07.551Z,88.44
2019-03-16T03:39:34.084Z,88.42
2019-03-16T03:42:00.721Z,88.03
2019-03-16T03:44:27.154Z,88.13
2019-03-16T03:46:53.588Z,88.16
2019-03-16T03:49:20.025Z,87.60
2019-03-16T03:51:46.764Z,87.41
2019-03-16T03:54:13.302Z,89.07
2019-03-16T03:56:39.835Z,87.59
2019-03-16T03:59:06.473Z,86.68
2019-03-16T04:01:32.911Z,87.24
2019-03-16T04:04:14.284Z,87.42
2019-03-16T04:06:28.032Z,87.14
2019-03-16T04:08:54.461Z,87.04
2019-03-16T04:11:21.314Z,86.84
2019-03-16T04:13:47.840Z,87.21
2019-03-16T04:16:14.382Z,87.12
2019-03-16T04:18:41.117Z,86.90
2019-03-16T04:21:07.550Z,86.91
2019-03-16T04:23:33.982Z,87.65
2019-03-16T04:26:00.519Z,86.96
2019-03-16T04:28:26.951Z,86.88
2019-03-16T04:30:54.819Z,86.66
2019-03-16T04:33:21.356Z,86.41
2019-03-16T04:35:47.892Z,86.42
2019-03-16T04:38:14.323Z,86.53
2019-03-16T04:40:40.762Z,87.07
2019-03-16T04:43:07.295Z,87.03
2019-03-16T04:45:33.831Z,87.44
2019-03-16T04:48:00.364Z,86.79
2019-03-16T04:50:26.799Z,86.76
2019-03-16T04:52:53.267Z,86.79
2019-03-16T04:55:19.871Z,86.79
2019-03-16T04:57:46.306Z,87.48
2019-03-16T05:00:13.563Z,87.22
2019-03-16T05:02:40.100Z,87.14
2019-03-16T05:05:07.042Z,87.04
2019-03-16T05:07:33.475Z,87.07
2019-03-16T05:09:59.909Z,87.49
2019-03-16T05:12:26.442Z,87.23
2019-03-16T05:14:52.979Z,86.79
2019-03-16T05:17:19.412Z,86.62
2019-03-16T05:19:45.844Z,86.71
2019-03-16T05:22:12.277Z,86.66
2019-03-16T05:24:39.120Z,86.98
2019-03-16T05:27:05.556Z,87.28
2019-03-16T05:29:32.094Z,86.38
2019-03-16T05:31:58.732Z,86.08
2019-03-16T05:34:25.576Z,85.98
2019-03-16T05:36:52.004Z,85.96
2019-03-16T05:39:18.439Z,85.88
2019-03-16T05:41:44.870Z,86.46
2019-03-16T05:44:11.409Z,86.28
2019-03-16T05:46:37.945Z,86.23
2019-03-16T05:49:04.430Z,86.11
2019-03-16T05:51:31.015Z,86.56
2019-03-16T05:53:57.551Z,86.26
2019-03-16T05:56:24.087Z,86.39
2019-03-16T05:58:50.625Z,86.57
2019-03-16T06:01:17.056Z,86.23
2019-03-16T06:03:43.596Z,86.71
2019-03-16T06:06:10.129Z,86.64
2019-03-16T06:08:36.664Z,86.51
2019-03-16T06:11:03.097Z,86.40
2019-03-16T06:13:29.532Z,86.68
2019-03-16T06:15:56.375Z,86.49
2019-03-16T06:18:46.094Z,86.59
2019-03-16T06:21:12.691Z,86.38
2019-03-16T06:23:39.233Z,86.92
2019-03-16T06:26:07.607Z,86.78
2019-03-16T06:28:34.144Z,86.66
2019-03-16T06:31:00.576Z,87.11
2019-03-16T06:33:27.009Z,86.73
2019-03-16T06:35:53.649Z,86.40
2019-03-16T06:38:20.082Z,86.54
2019-03-16T06:40:46.518Z,86.64
2019-03-16T06:43:12.950Z,86.44
2019-03-16T06:45:39.487Z,86.11
2019-03-16T06:48:06.023Z,86.51
2019-03-16T06:50:32.458Z,86.28
2019-03-16T06:52:58.996Z,86.59
2019-03-16T06:55:25.526Z,87.01
2019-03-16T06:57:51.961Z,86.81
2019-03-16T07:00:18.397Z,86.62
2019-03-16T07:02:44.931Z,86.41
2019-03-16T07:05:12.388Z,86.24
2019-03-16T07:07:40.715Z,86.57
2019-03-16T07:10:11.149Z,85.47
2019-03-16T07:12:37.628Z,84.89
2019-03-16T07:15:07.676Z,84.09
2019-03-16T07:17:34.262Z,84.37
2019-03-16T07:20:01.026Z,84.29
2019-03-16T07:22:27.665Z,84.00
2019-03-16T07:24:54.305Z,84.71
2019-03-16T07:27:26.016Z,84.31
2019-03-16T07:29:49.160Z,82.98
2019-03-16T07:32:15.647Z,82.84
2019-03-16T07:34:42.184Z,83.47
2019-03-16T07:37:09.538Z,83.28
2019-03-16T07:39:35.974Z,82.65
2019-03-16T07:42:02.409Z,81.71
2019-03-16T07:44:28.839Z,82.89
2019-03-16T07:46:55.377Z,81.69
2019-03-16T07:49:21.809Z,81.26
2019-03-16T07:51:48.344Z,81.39
2019-03-16T07:54:14.764Z,81.45
2019-03-16T07:56:41.314Z,81.72
2019-03-16T07:59:07.755Z,82.53
2019-03-16T08:01:34.181Z,82.28
2019-03-16T08:04:00.718Z,80.80
2019-03-16T08:06:27.253Z,83.29
2019-03-16T08:08:53.694Z,83.96
2019-03-16T08:11:20.329Z,83.71
2019-03-16T08:13:46.762Z,83.05
2019-03-16T08:16:13.293Z,82.92
2019-03-16T08:18:39.729Z,82.48
2019-03-16T08:21:06.631Z,83.00
2019-03-16T08:23:33.107Z,81.41
2019-03-16T08:25:59.643Z,81.23
2019-03-16T08:28:28.431Z,80.72
2019-03-16T08:30:56.855Z,79.78
2019-03-16T08:33:23.243Z,79.22
2019-03-16T08:35:49.782Z,78.31
2019-03-16T08:38:16.519Z,78.39
2019-03-16T08:40:42.956Z,77.63
2019-03-16T08:43:09.389Z,78.49
2019-03-16T08:45:35.922Z,78.28
2019-03-16T08:48:02.738Z,77.62
2019-03-16T08:50:36.673Z,78.54
2019-03-16T08:53:03.461Z,79.08
2019-03-16T08:55:30.056Z,78.80
2019-03-16T08:58:05.650Z,78.81
2019-03-16T09:00:24.867Z,78.89
2019-03-16T09:02:51.301Z,79.95
2019-03-16T09:05:17.846Z,78.95
2019-03-16T09:07:44.382Z,79.05
2019-03-16T09:10:10.993Z,78.53
2019-03-16T09:12:39.596Z,77.50
2019-03-16T09:15:11.953Z,78.46
2019-03-16T09:17:52.358Z,78.22
2019-03-16T09:20:16.814Z,79.53
2019-03-16T09:22:43.453Z,79.74
2019-03-16T09:25:11.636Z,77.56
2019-03-16T09:27:38.061Z,78.95
2019-03-16T09:30:08.078Z,77.71
2019-03-16T09:32:34.616Z,77.12
2019-03-16T09:35:01.151Z,77.06
2019-03-16T09:37:27.890Z,78.01
2019-03-16T09:39:54.734Z,76.28
2019-03-16T09:42:21.335Z,76.83
2019-03-16T09:44:49.620Z,75.71
2019-03-16T09:47:27.041Z,74.78
2019-03-16T09:49:56.649Z,77.82
2019-03-16T09:52:32.299Z,75.51
2019-03-16T09:54:58.833Z,75.27
2019-03-16T09:57:25.368Z,73.87
2019-03-16T09:59:51.910Z,73.00
2019-03-16T10:02:18.799Z,73.00
2019-03-16T10:04:45.388Z,73.75
2019-03-16T10:07:11.926Z,72.62
2019-03-16T10:09:38.466Z,73.39
2019-03-16T10:12:05.302Z,73.65
2019-03-16T10:14:31.843Z,73.58
2019-03-16T10:16:58.374Z,74.28
2019-03-16T10:19:24.918Z,71.90
2019-03-16T10:21:51.549Z,72.42
2019-03-16T10:24:18.086Z,72.76
2019-03-16T10:26:44.626Z,71.47
2019-03-16T10:29:11.156Z,72.21
2019-03-16T10:31:37.691Z,72.21
2019-03-16T10:34:04.227Z,73.00
2019-03-16T10:36:30.764Z,72.29
2019-03-16T10:38:57.299Z,71.81
2019-03-16T10:41:24.144Z,72.11
2019-03-16T10:43:50.679Z,70.80
2019-03-16T10:46:17.217Z,70.69
2019-03-16T10:48:43.750Z,69.50
2019-03-16T10:51:10.396Z,69.08
2019-03-16T10:53:36.940Z,69.68
2019-03-16T10:56:03.459Z,67.87
2019-03-16T10:58:30.454Z,69.67
2019-03-16T11:00:56.940Z,69.00
2019-03-16T11:03:23.477Z,67.95
2019-03-16T11:05:50.016Z,66.42
2019-03-16T11:08:16.549Z,68.31
2019-03-16T11:10:42.985Z,68.28
2019-03-16T11:13:09.518Z,67.87
2019-03-16T11:15:37.794Z,68.02
2019-03-16T11:18:04.227Z,66.95
2019-03-16T11:20:30.765Z,67.46
2019-03-16T11:22:57.199Z,68.61
2019-03-16T11:25:23.736Z,67.88
2019-03-16T11:27:50.274Z,67.81
2019-03-16T11:30:18.580Z,66.14
2019-03-16T11:32:45.085Z,67.42
2019-03-16T11:35:11.752Z,68.11
2019-03-16T11:37:38.360Z,67.45
2019-03-16T11:40:16.266Z,67.77
2019-03-16T11:42:43.107Z,66.96
2019-03-16T11:45:10.963Z,66.79
2019-03-16T11:47:37.408Z,67.18
2019-03-16T11:50:06.326Z,65.81
2019-03-16T11:52:34.019Z,68.52
2019-03-16T11:55:00.598Z,67.79
2019-03-16T11:57:27.030Z,67.31
2019-03-16T11:59:53.463Z,66.68
2019-03-16T12:02:20.000Z,68.16
2019-03-16T12:04:46.543Z,67.23
2019-03-16T12:07:13.071Z,68.52
2019-03-16T12:09:39.506Z,69.35
2019-03-16T12:12:06.042Z,68.60
2019-03-16T12:14:32.577Z,69.38
2019-03-16T12:16:59.010Z,70.21
2019-03-16T12:19:25.444Z,68.26
2019-03-16T12:21:52.494Z,68.40
2019-03-16T12:24:19.029Z,66.85
2019-03-16T12:26:45.565Z,67.48
2019-03-16T12:29:11.997Z,68.81
2019-03-16T12:31:38.692Z,67.17
2019-03-16T12:34:05.174Z,67.16
2019-03-16T12:36:31.708Z,68.38
2019-03-16T12:38:58.140Z,69.24
2019-03-16T12:41:24.582Z,68.31
2019-03-16T12:43:51.315Z,69.06
2019-03-16T12:46:19.594Z,68.45
2019-03-16T12:48:46.026Z,68.44
2019-03-16T12:51:12.669Z,68.10
2019-03-16T12:53:39.611Z,67.72
2019-03-16T12:56:06.425Z,70.04
2019-03-16T12:58:36.461Z,68.29
2019-03-16T13:01:03.213Z,68.99
2019-03-16T13:03:29.746Z,67.83
2019-03-16T13:05:56.282Z,69.32
2019-03-16T13:08:22.828Z,67.07
2019-03-16T13:10:49.237Z,67.12
2019-03-16T13:13:16.097Z,65.57
2019-03-16T13:15:42.634Z,65.54
2019-03-16T13:18:09.065Z,65.61
2019-03-16T13:20:35.911Z,64.70
2019-03-16T13:23:02.660Z,64.90
2019-03-16T13:25:29.286Z,63.80
2019-03-16T13:27:55.823Z,63.35
2019-03-16T13:30:22.358Z,62.02
2019-03-16T13:32:48.791Z,62.75
2019-03-16T13:35:15.345Z,62.04
2019-03-16T13:37:42.071Z,62.14
2019-03-16T13:40:14.250Z,64.17
2019-03-16T13:42:42.504Z,59.99
2019-03-16T13:45:11.159Z,60.85
2019-03-16T13:47:37.944Z,58.32
2019-03-16T13:50:16.029Z,58.19
2019-03-16T13:52:42.896Z,56.82
2019-03-16T13:55:09.649Z,56.38
2019-03-16T13:57:36.169Z,55.54
2019-03-16T14:00:11.791Z,58.48
2019-03-16T14:02:34.889Z,56.54
2019-03-16T14:05:01.414Z,57.50
2019-03-16T14:07:28.454Z,53.19
2019-03-16T14:09:55.196Z,51.84
2019-03-16T14:12:21.632Z,52.27
2019-03-16T14:14:48.578Z,49.42
2019-03-16T14:17:16.442Z,48.52
2019-03-16T14:19:42.915Z,49.48
2019-03-16T14:22:09.571Z,50.10
2019-03-16T14:24:36.151Z,49.22
2019-03-16T14:27:02.994Z,46.97
2019-03-16T14:29:29.545Z,46.61
2019-03-16T14:31:56.067Z,42.66
2019-03-16T14:34:22.500Z,41.27
2019-03-16T14:36:49.035Z,41.41
2019-03-16T14:39:15.572Z,40.84
2019-03-16T14:41:42.006Z,41.72
2019-03-16T14:44:08.438Z,42.08
2019-03-16T14:46:35.287Z,42.06
2019-03-16T14:49:01.716Z,42.15
2019-03-16T14:51:28.150Z,39.86
2019-03-16T14:53:54.587Z,40.21
2019-03-16T14:56:21.120Z,40.79
2019-03-16T14:58:47.555Z,42.25
2019-03-16T15:01:14.091Z,39.15
2019-03-16T15:03:40.523Z,39.90
2019-03-16T15:06:08.608Z,39.12
2019-03-16T15:08:35.134Z,40.38
2019-03-16T15:11:01.668Z,39.17
2019-03-16T15:13:28.134Z,38.99
2019-03-16T15:15:58.683Z,38.21
2019-03-16T15:18:25.164Z,38.72
2019-03-16T15:20:51.911Z,37.58
2019-03-16T15:23:18.340Z,37.53
2019-03-16T15:25:44.878Z,36.77
2019-03-16T15:28:11.308Z,39.67
2019-03-16T15:30:49.762Z,41.31
2019-03-16T15:33:06.125Z,40.09
2019-03-16T15:35:32.656Z,39.65
2019-03-16T15:37:59.198Z,40.26
2019-03-16T15:40:26.856Z,41.47
2019-03-16T15:42:53.296Z,39.81
2019-03-16T15:45:28.021Z,39.75
2019-03-16T15:47:54.558Z,38.93
2019-03-16T15:50:20.994Z,38.70
2019-03-16T15:52:47.426Z,39.82
2019-03-16T15:55:13.969Z,39.95
2019-03-16T15:57:42.484Z,40.92
2019-03-16T16:00:15.027Z,40.99
2019-03-16T16:02:41.652Z,39.12
2019-03-16T16:05:08.497Z,36.46
2019-03-16T16:07:35.530Z,38.56
2019-03-16T16:10:04.348Z,35.21
2019-03-16T16:12:30.868Z,37.10
2019-03-16T16:14:57.340Z,37.19
2019-03-16T16:17:24.351Z,36.51
2019-03-16T16:19:51.092Z,38.49
2019-03-16T16:22:17.838Z,38.15
2019-03-16T16:24:44.370Z,38.61
2019-03-16T16:27:10.909Z,38.40
2019-03-16T16:29:37.646Z,40.36
2019-03-16T16:32:04.083Z,39.39
2019-03-16T16:34:30.614Z,40.07
2019-03-16T16:36:57.047Z,40.56
2019-03-16T16:39:23.482Z,42.66
2019-03-16T16:41:50.118Z,44.39
2019-03-16T16:44:16.552Z,42.31
2019-03-16T16:46:43.089Z,40.94
2019-03-16T16:49:09.624Z,41.09
2019-03-16T16:51:36.056Z,38.79
2019-03-16T16:54:02.593Z,41.41
2019-03-16T16:56:29.173Z,38.86
2019-03-16T16:58:55.666Z,39.96
2019-03-16T17:01:29.158Z,43.65
2019-03-16T17:03:50.477Z,40.41
2019-03-16T17:06:17.015Z,41.62
2019-03-16T17:08:43.449Z,44.07
2019-03-16T17:11:09.880Z,43.72
2019-03-16T17:13:36.520Z,44.33
2019-03-16T17:16:03.157Z,45.23
2019-03-16T17:18:30.001Z,47.37
2019-03-16T17:20:58.689Z,46.45
2019-03-16T17:23:25.120Z,46.79
2019-03-16T17:25:51.658Z,48.05
2019-03-16T17:28:18.094Z,47.99
2019-03-16T17:30:44.631Z,47.70
2019-03-16T17:33:11.167Z,47.55
2019-03-16T17:35:38.052Z,48.61
2019-03-16T17:38:04.646Z,48.67
2019-03-16T17:40:31.181Z,52.11
2019-03-16T17:42:57.715Z,53.98
2019-03-16T17:45:24.457Z,54.58
2019-03-16T17:47:50.892Z,55.69
2019-03-16T17:50:17.437Z,58.85
2019-03-16T17:52:43.961Z,58.94
2019-03-16T17:55:11.935Z,58.61
2019-03-16T17:57:38.467Z,59.24
2019-03-16T18:00:19.062Z,60.31
2019-03-16T18:02:51.637Z,60.88
2019-03-16T18:05:14.254Z,60.19
2019-03-16T18:07:40.893Z,61.45
2019-03-16T18:10:12.036Z,62.41
2019-03-16T18:12:39.703Z,63.74
2019-03-16T18:15:12.031Z,63.89
2019-03-16T18:17:38.825Z,63.90
2019-03-16T18:20:08.774Z,62.74
2019-03-16T18:22:35.265Z,63.60
2019-03-16T18:25:01.904Z,63.12
2019-03-16T18:27:28.464Z,63.54
2019-03-16T18:29:54.973Z,63.19
2019-03-16T18:32:21.410Z,63.35
2019-03-16T18:34:47.942Z,63.45
2019-03-16T18:37:14.375Z,62.11
2019-03-16T18:39:40.913Z,59.90
2019-03-16T18:42:08.676Z,58.48
2019-03-16T18:44:35.214Z,57.79
2019-03-16T18:47:01.768Z,58.67
2019-03-16T18:49:28.490Z,60.81
2019-03-16T18:51:54.923Z,61.30
2019-03-16T18:54:21.459Z,63.35
2019-03-16T18:56:47.994Z,63.35
2019-03-16T18:59:14.427Z,58.91
2019-03-16T19:01:40.863Z,58.42
2019-03-16T19:04:07.294Z,57.97
2019-03-16T19:06:34.368Z,57.39
2019-03-16T19:09:02.728Z,57.43
2019-03-16T19:11:51.077Z,57.71
2019-03-16T19:14:17.710Z,57.61
2019-03-16T19:16:44.260Z,57.66
2019-03-16T19:19:10.782Z,57.61
2019-03-16T19:21:37.321Z,57.35
2019-03-16T19:24:03.860Z,57.77
2019-03-16T19:26:30.408Z,58.19
2019-03-16T19:28:56.929Z,58.89
2019-03-16T19:31:23.464Z,59.39
2019-03-16T19:33:52.744Z,61.44
2019-03-16T19:36:20.783Z,60.00
2019-03-16T19:38:47.268Z,60.86
2019-03-16T19:41:13.804Z,60.41
2019-03-16T19:43:43.221Z,60.39
2019-03-16T19:46:09.745Z,60.10
2019-03-16T19:48:36.385Z,60.60
2019-03-16T19:51:04.402Z,60.56
2019-03-16T19:53:31.275Z,60.26
2019-03-16T19:56:02.550Z,61.20
2019-03-16T19:58:29.077Z,60.82
2019-03-16T20:01:00.750Z,59.96
2019-03-16T20:03:27.272Z,60.39
2019-03-16T20:05:56.567Z,61.20
2019-03-16T20:08:24.449Z,61.04
2019-03-16T20:10:50.980Z,61.04
2019-03-16T20:13:17.610Z,59.68
2019-03-16T20:15:45.047Z,58.83
2019-03-16T20:18:11.606Z,59.69
2019-03-16T20:20:43.445Z,60.25
2019-03-16T20:23:11.751Z,60.26
2019-03-16T20:25:41.351Z,60.25
2019-03-16T20:28:09.010Z,61.95
2019-03-16T20:30:35.651Z,62.22
2019-03-16T20:33:04.532Z,61.78
2019-03-16T20:35:32.875Z,60.58
2019-03-16T20:38:05.877Z,61.20
2019-03-16T20:40:32.343Z,61.42
2019-03-16T20:42:58.774Z,60.89
2019-03-16T20:45:25.361Z,60.52
2019-03-16T20:47:51.948Z,62.65
2019-03-16T20:50:19.210Z,59.88
2019-03-16T20:52:46.149Z,61.00
2019-03-16T20:55:14.121Z,61.04
2019-03-16T20:57:40.822Z,58.92
2019-03-16T21:00:13.742Z,58.59
2019-03-16T21:02:40.691Z,59.24
2019-03-16T21:05:08.759Z,56.26
2019-03-16T21:07:35.299Z,56.64
2019-03-16T21:10:01.831Z,58.21
2019-03-16T21:12:29.902Z,58.14
2019-03-16T21:14:56.541Z,57.47
2019-03-16T21:17:23.077Z,62.05
2019-03-16T21:19:49.613Z,62.65
2019-03-16T21:22:16.148Z,62.01
2019-03-16T21:24:42.686Z,61.49
2019-03-16T21:27:09.237Z,60.89
2019-03-16T21:29:35.757Z,60.59
2019-03-16T21:32:02.307Z,59.75
2019-03-16T21:34:28.832Z,58.45
2019-03-16T21:36:55.370Z,60.07
2019-03-16T21:39:21.903Z,60.46
2019-03-16T21:41:48.444Z,61.25
2019-03-16T21:44:14.975Z,61.73
2019-03-16T21:46:44.008Z,61.53
2019-03-16T21:49:10.606Z,59.88
2019-03-16T21:51:37.425Z,61.27
2019-03-16T21:54:04.395Z,61.32
2019-03-16T21:56:30.931Z,61.14
2019-03-16T21:58:57.466Z,61.18
2019-03-16T22:01:24.001Z,60.93
2019-03-16T22:03:50.434Z,60.71
2019-03-16T22:06:16.977Z,59.63
2019-03-16T22:08:43.505Z,60.37
2019-03-16T22:11:10.349Z,60.89
2019-03-16T22:13:36.883Z,60.77
2019-03-16T22:16:03.528Z,60.69
2019-03-16T22:18:30.058Z,58.96
2019-03-16T22:20:56.596Z,57.78
2019-03-16T22:23:23.131Z,58.42
2019-03-16T22:25:49.871Z,58.29
2019-03-16T22:28:16.407Z,59.34
2019-03-16T22:30:42.841Z,59.49
2019-03-16T22:33:09.274Z,57.86
2019-03-16T22:35:36.321Z,57.41
2019-03-16T22:38:02.863Z,57.29
2019-03-16T22:40:29.291Z,56.62
2019-03-16T22:42:55.829Z,57.24
2019-03-16T22:45:24.107Z,57.08
2019-03-16T22:47:50.688Z,56.77
2019-03-16T22:50:18.514Z,56.77
2019-03-16T22:52:48.701Z,58.04
2019-03-16T22:55:37.132Z,58.04
2019-03-16T22:58:03.817Z,57.61
2019-03-16T23:00:46.945Z,56.74
2019-03-16T23:03:13.789Z,57.78
2019-03-16T23:05:45.547Z,58.12
2019-03-16T23:08:13.930Z,58.32
2019-03-16T23:10:40.870Z,58.32
2019-03-16T23:13:07.512Z,59.16
2019-03-16T23:15:34.148Z,60.59
2019-03-16T23:18:00.683Z,60.16
2019-03-16T23:20:27.221Z,57.90
2019-03-16T23:22:53.752Z,56.66
2019-03-16T23:25:20.289Z,56.66
2019-03-16T23:27:46.855Z,56.07
2019-03-16T23:30:13.565Z,55.64
2019-03-16T23:32:40.102Z,55.64
2019-03-16T23:35:07.460Z,58.20
2019-03-16T23:37:33.992Z,57.79
2019-03-16T23:40:00.576Z,56.65
2019-03-16T23:42:28.295Z,56.80
2019-03-16T23:44:54.829Z,57.27
2019-03-16T23:47:21.366Z,56.71
2019-03-16T23:49:47.904Z,57.08
2019-03-16T23:52:14.440Z,57.39
2019-03-16T23:54:41.084Z,55.29
2019-03-16T23:57:07.610Z,54.81
2019-03-16T23:59:34.147Z,54.81
